KMZZ/MZZ METAR and TAF weather

Enter ICAO airport designator
Station Type Date Time Source
KMZZ METAR 2019/06/18 16:35 UTC NOAA

KMZZ 181635Z AUTO 00000KT 10SM BKN026 OVC035 24/20 A2996 RMK AO2 T02360200


Station Type Date Time Source
KMZZ Decoded METAR 2019/06/18 16:35 UTC NOAA

Station name not available
Jun 18, 2019 - 12:35 PM EDT / 2019.06.18 1635 UTC
Wind: Calm:0
Visibility: 10 mile(s):0
Sky conditions: overcast
Temperature: 74.5 F (23.6 C)
Dew Point: 68.0 F (20.0 C)
Relative Humidity: 80%
Pressure (altimeter): 29.96 in. Hg (1014 hPa)
ob: KMZZ 181635Z AUTO 00000KT 10SM BKN026 OVC035 24/20 A2996 RMK AO2 T02360200
cycle: 16

Station Type Date Time Source
KMZZ TAF UTC NOAA

Error!

Example: see airport list